Archival Weather

Norman Y Mineta San Jose Intl

San Jose, California (KSJC)

Report from: Saturday, September 30, 2023 4:32 AM PDT
Current time: Thursday, July 18, 2024 8:26 PM PDT

Current weather – Weather history – Daily summaries
Weather forecast

Temperature16.7°C (62.1°F)
Dew point13.9°C (57.0°F)
Winds 6 kts (3.1 m/s, 6.9 mph) Northwest (310°)
Visibility10 mi. (16.1 km)
Clouds Ceiling: Broken clouds 1,500 ft. (457 m)
Broken clouds 2,000 ft. (610 m)
Overcast 4,200 ft. (1,280 m)
Altimeter29.78 in.Hg (1008 mB)
Relative humidity84 %
Density altitude583 ft. (178 m)
Remarks Fully automated report
Automated weather observing station with precipitation discriminator
Flight conditions Marginal Visual Meteorological Conditions
Raw dataKSJC 301132Z AUTO 31006KT 10SM BKN015 BKN020 OVC042 17/14 A2978 RMK AO2 T01670139
An error has occurred. This application may no longer respond until reloaded. Reload 🗙